Weather at Hässleholm Vankivar Airport [CLOSED]

Public forecast

Using degrees Celsius for public forecast. Weather courtesy of forecast.io.

Closest aviation weather report (METAR) to Hässleholm Vankivar Airport

Report is more than 6 hours old.

Closest report is Ljungbyhed Airport, 19.0 nm (35.2 km) WSW.

2022/11/14 15:20 (retrieved 2 years ago)

ESTL 141520Z 11009KT 9999 BKN014 10/08 Q1019

Closest aviation forecast (TAF) to Hässleholm Vankivar Airport

Forecast is more than 12 hours old.

Closest forecast is Malmö Sturup Airport, 40.9 nm (75.8 km) SSW.

2023/02/22 21:06 (retrieved 1 year ago)

TAF TAF ESMS 222001Z 2221/2321 12013KT 9999 BKN025 TEMPO 2303/2306 BKN010 BECMG 2306/2308 18008KT 2000 RADZ BR BKN004 TEMPO 2308/2321 6000 NSW BKN007